sensor_id;sensor_type;location;lat;lon;timestamp;pressure;altitude;pressure_sealevel;temperature;humidity
62248;BME280;48237;50.140;8.486;2023-01-30T00:02:08;100163.71;;;1.92;69.33
62248;BME280;48237;50.140;8.486;2023-01-30T00:04:35;100166.85;;;2.21;68.20
62248;BME280;48237;50.140;8.486;2023-01-30T00:07:03;100166.27;;;1.35;69.20
62248;BME280;48237;50.140;8.486;2023-01-30T00:09:29;100180.12;;;2.10;67.08
62248;BME280;48237;50.140;8.486;2023-01-30T00:11:57;100176.01;;;2.49;67.14
62248;BME280;48237;50.140;8.486;2023-01-30T00:14:24;100176.55;;;0.62;70.97
62248;BME280;48237;50.140;8.486;2023-01-30T00:16:51;100162.19;;;1.88;69.40
62248;BME280;48237;50.140;8.486;2023-01-30T00:19:18;100144.69;;;2.10;68.35
62248;BME280;48237;50.140;8.486;2023-01-30T00:21:45;100143.75;;;2.35;67.93
62248;BME280;48237;50.140;8.486;2023-01-30T00:24:12;100143.96;;;1.92;69.20
62248;BME280;48237;50.140;8.486;2023-01-30T00:26:39;100128.26;;;2.42;67.72
62248;BME280;48237;50.140;8.486;2023-01-30T00:29:07;100114.25;;;1.57;71.42
62248;BME280;48237;50.140;8.486;2023-01-30T00:31:34;100078.00;;;0.85;74.80
62248;BME280;48237;50.140;8.486;2023-01-30T00:34:01;100077.60;;;2.38;69.54
62248;BME280;48237;50.140;8.486;2023-01-30T00:36:28;100077.93;;;1.74;72.25
62248;BME280;48237;50.140;8.486;2023-01-30T00:38:56;100086.75;;;2.26;69.60
62248;BME280;48237;50.140;8.486;2023-01-30T00:41:23;100096.96;;;2.48;69.63
62248;BME280;48237;50.140;8.486;2023-01-30T00:43:50;100092.00;;;1.59;72.27
62248;BME280;48237;50.140;8.486;2023-01-30T00:46:23;100084.97;;;1.95;71.67
62248;BME280;48237;50.140;8.486;2023-01-30T00:48:51;100087.86;;;2.11;71.31
62248;BME280;48237;50.140;8.486;2023-01-30T00:51:18;100087.75;;;2.11;71.70
62248;BME280;48237;50.140;8.486;2023-01-30T00:53:45;100076.85;;;2.19;70.96
62248;BME280;48237;50.140;8.486;2023-01-30T00:56:12;100073.36;;;2.18;71.33
62248;BME280;48237;50.140;8.486;2023-01-30T00:58:40;100079.82;;;1.31;74.27
62248;BME280;48237;50.140;8.486;2023-01-30T01:01:07;100066.08;;;2.16;70.68
62248;BME280;48237;50.140;8.486;2023-01-30T01:03:34;100059.41;;;2.12;74.20
62248;BME280;48237;50.140;8.486;2023-01-30T01:06:01;100064.37;;;2.07;73.60
62248;BME280;48237;50.140;8.486;2023-01-30T01:08:28;100070.46;;;2.27;73.99
62248;BME280;48237;50.140;8.486;2023-01-30T01:10:56;100066.30;;;1.08;75.80
62248;BME280;48237;50.140;8.486;2023-01-30T01:13:23;100053.39;;;1.77;73.93
62248;BME280;48237;50.140;8.486;2023-01-30T01:15:50;100057.36;;;2.50;72.42
62248;BME280;48237;50.140;8.486;2023-01-30T01:18:17;100054.63;;;1.17;79.55
62248;BME280;48237;50.140;8.486;2023-01-30T01:20:45;100052.47;;;0.43;80.06
62248;BME280;48237;50.140;8.486;2023-01-30T01:23:12;100036.12;;;0.87;78.46
62248;BME280;48237;50.140;8.486;2023-01-30T01:25:39;100023.16;;;1.93;76.07
62248;BME280;48237;50.140;8.486;2023-01-30T01:28:05;100026.24;;;0.78;79.55
62248;BME280;48237;50.140;8.486;2023-01-30T01:30:33;100035.07;;;1.60;76.66
62248;BME280;48237;50.140;8.486;2023-01-30T01:33:00;100037.50;;;2.31;74.54
62248;BME280;48237;50.140;8.486;2023-01-30T01:35:28;100034.85;;;1.34;77.98
62248;BME280;48237;50.140;8.486;2023-01-30T01:37:55;100031.53;;;1.48;79.29
62248;BME280;48237;50.140;8.486;2023-01-30T01:40:22;100031.93;;;0.82;82.10
62248;BME280;48237;50.140;8.486;2023-01-30T01:42:50;100020.68;;;1.54;80.89
62248;BME280;48237;50.140;8.486;2023-01-30T01:45:19;100025.76;;;0.86;83.66
62248;BME280;48237;50.140;8.486;2023-01-30T01:47:54;100018.06;;;0.73;83.18
62248;BME280;48237;50.140;8.486;2023-01-30T01:50:27;100017.39;;;0.67;84.67
62248;BME280;48237;50.140;8.486;2023-01-30T01:52:58;99997.21;;;1.20;80.18
62248;BME280;48237;50.140;8.486;2023-01-30T01:55:28;99993.94;;;0.11;85.46
62248;BME280;48237;50.140;8.486;2023-01-30T01:57:59;99995.26;;;0.82;81.57
62248;BME280;48237;50.140;8.486;2023-01-30T02:00:30;99996.53;;;1.12;81.41
62248;BME280;48237;50.140;8.486;2023-01-30T02:03:00;99992.78;;;1.79;79.09
62248;BME280;48237;50.140;8.486;2023-01-30T02:05:34;99985.54;;;0.66;83.66
62248;BME280;48237;50.140;8.486;2023-01-30T02:08:07;99975.58;;;1.87;78.51
62248;BME280;48237;50.140;8.486;2023-01-30T02:10:42;99964.95;;;0.37;83.02
62248;BME280;48237;50.140;8.486;2023-01-30T02:13:13;99975.37;;;1.78;78.58
62248;BME280;48237;50.140;8.486;2023-01-30T02:15:41;99978.91;;;0.62;83.36
62248;BME280;48237;50.140;8.486;2023-01-30T02:18:09;99979.28;;;1.77;78.02
62248;BME280;48237;50.140;8.486;2023-01-30T02:20:53;99981.82;;;0.66;82.41
62248;BME280;48237;50.140;8.486;2023-01-30T02:24:56;99970.24;;;2.29;76.86
62248;BME280;48237;50.140;8.486;2023-01-30T02:27:47;99952.64;;;1.22;81.00
62248;BME280;48237;50.140;8.486;2023-01-30T02:30:41;99954.78;;;0.97;82.77
62248;BME280;48237;50.140;8.486;2023-01-30T02:33:12;99954.14;;;1.85;79.19
62248;BME280;48237;50.140;8.486;2023-01-30T02:35:49;99954.03;;;1.80;78.98
62248;BME280;48237;50.140;8.486;2023-01-30T02:38:28;99951.97;;;2.08;77.28
62248;BME280;48237;50.140;8.486;2023-01-30T02:41:05;99947.35;;;1.47;78.76
62248;BME280;48237;50.140;8.486;2023-01-30T02:43:45;99946.15;;;1.24;79.70
62248;BME280;48237;50.140;8.486;2023-01-30T02:46:20;99947.24;;;1.74;77.38
62248;BME280;48237;50.140;8.486;2023-01-30T02:48:53;99948.76;;;1.69;78.76
62248;BME280;48237;50.140;8.486;2023-01-30T02:51:26;99946.75;;;2.16;76.27
62248;BME280;48237;50.140;8.486;2023-01-30T02:53:55;99959.21;;;0.15;83.03
62248;BME280;48237;50.140;8.486;2023-01-30T02:56:25;99951.79;;;1.78;78.45
62248;BME280;48237;50.140;8.486;2023-01-30T02:58:55;99952.72;;;2.28;76.64
62248;BME280;48237;50.140;8.486;2023-01-30T03:01:41;99954.77;;;1.66;78.97
62248;BME280;48237;50.140;8.486;2023-01-30T03:04:24;99959.66;;;1.44;78.02
62248;BME280;48237;50.140;8.486;2023-01-30T03:07:06;99951.24;;;0.45;82.49
62248;BME280;48237;50.140;8.486;2023-01-30T03:09:45;99962.61;;;-0.74;88.13
62248;BME280;48237;50.140;8.486;2023-01-30T03:12:19;99961.14;;;1.27;83.36
62248;BME280;48237;50.140;8.486;2023-01-30T03:14:53;99949.29;;;0.56;83.31
62248;BME280;48237;50.140;8.486;2023-01-30T03:17:23;99941.00;;;1.82;79.13
62248;BME280;48237;50.140;8.486;2023-01-30T03:19:52;99938.76;;;1.24;80.31
62248;BME280;48237;50.140;8.486;2023-01-30T03:22:20;99931.49;;;0.92;83.73
62248;BME280;48237;50.140;8.486;2023-01-30T03:24:49;99936.68;;;1.52;81.32
62248;BME280;48237;50.140;8.486;2023-01-30T03:27:18;99931.99;;;1.07;82.56
62248;BME280;48237;50.140;8.486;2023-01-30T03:29:45;99932.20;;;-0.10;88.63
62248;BME280;48237;50.140;8.486;2023-01-30T03:32:13;99936.94;;;2.04;79.61
62248;BME280;48237;50.140;8.486;2023-01-30T03:34:40;99932.41;;;1.42;83.56
62248;BME280;48237;50.140;8.486;2023-01-30T03:37:08;99916.01;;;1.45;83.14
62248;BME280;48237;50.140;8.486;2023-01-30T03:39:35;99902.29;;;0.90;85.25
62248;BME280;48237;50.140;8.486;2023-01-30T03:42:03;99897.26;;;0.68;84.65
62248;BME280;48237;50.140;8.486;2023-01-30T03:44:30;99896.84;;;1.36;82.40
62248;BME280;48237;50.140;8.486;2023-01-30T03:46:57;99900.79;;;0.90;83.87
62248;BME280;48237;50.140;8.486;2023-01-30T03:49:24;99913.13;;;0.64;86.91
62248;BME280;48237;50.140;8.486;2023-01-30T03:51:51;99911.83;;;1.16;82.33
62248;BME280;48237;50.140;8.486;2023-01-30T03:54:18;99913.25;;;1.99;79.76
62248;BME280;48237;50.140;8.486;2023-01-30T03:56:45;99914.14;;;2.04;80.10
62248;BME280;48237;50.140;8.486;2023-01-30T03:59:13;99911.22;;;2.16;78.96
62248;BME280;48237;50.140;8.486;2023-01-30T04:01:39;99907.20;;;1.19;81.20
62248;BME280;48237;50.140;8.486;2023-01-30T04:04:07;99899.57;;;1.06;82.23
62248;BME280;48237;50.140;8.486;2023-01-30T04:06:35;99901.18;;;0.08;90.74
62248;BME280;48237;50.140;8.486;2023-01-30T04:09:02;99903.98;;;1.16;84.39
62248;BME280;48237;50.140;8.486;2023-01-30T04:11:29;99900.17;;;1.39;82.66
62248;BME280;48237;50.140;8.486;2023-01-30T04:13:56;99884.56;;;2.43;77.08
62248;BME280;48237;50.140;8.486;2023-01-30T04:16:25;99882.73;;;2.45;76.55
62248;BME280;48237;50.140;8.486;2023-01-30T04:18:53;99881.30;;;0.75;84.50
62248;BME280;48237;50.140;8.486;2023-01-30T04:21:20;99875.00;;;2.64;76.51
62248;BME280;48237;50.140;8.486;2023-01-30T04:23:47;99876.57;;;2.56;76.49
62248;BME280;48237;50.140;8.486;2023-01-30T04:26:14;99881.11;;;1.94;79.34
62248;BME280;48237;50.140;8.486;2023-01-30T04:28:41;99871.02;;;1.84;78.07
62248;BME280;48237;50.140;8.486;2023-01-30T04:31:08;99861.39;;;2.97;74.70
62248;BME280;48237;50.140;8.486;2023-01-30T04:33:35;99856.30;;;3.15;73.79
62248;BME280;48237;50.140;8.486;2023-01-30T04:36:04;99848.27;;;3.73;71.20
62248;BME280;48237;50.140;8.486;2023-01-30T04:38:32;99837.35;;;3.08;74.26
62248;BME280;48237;50.140;8.486;2023-01-30T04:41:00;99832.84;;;3.10;73.43
62248;BME280;48237;50.140;8.486;2023-01-30T04:43:28;99831.11;;;3.60;71.71
62248;BME280;48237;50.140;8.486;2023-01-30T04:45:56;99831.97;;;1.35;81.00
62248;BME280;48237;50.140;8.486;2023-01-30T04:48:25;99818.63;;;2.65;75.34
62248;BME280;48237;50.140;8.486;2023-01-30T04:50:53;99820.75;;;3.07;73.66
62248;BME280;48237;50.140;8.486;2023-01-30T04:53:21;99822.50;;;3.22;74.58
62248;BME280;48237;50.140;8.486;2023-01-30T04:55:48;99816.75;;;3.37;73.58
62248;BME280;48237;50.140;8.486;2023-01-30T04:58:16;99817.74;;;3.26;72.64
62248;BME280;48237;50.140;8.486;2023-01-30T05:00:44;99814.15;;;3.21;74.04
62248;BME280;48237;50.140;8.486;2023-01-30T05:03:11;99812.83;;;2.98;74.60
62248;BME280;48237;50.140;8.486;2023-01-30T05:05:38;99820.93;;;1.49;80.36
62248;BME280;48237;50.140;8.486;2023-01-30T05:08:05;99807.16;;;2.35;77.71
62248;BME280;48237;50.140;8.486;2023-01-30T05:10:33;99801.88;;;3.34;74.22
62248;BME280;48237;50.140;8.486;2023-01-30T05:13:02;99805.56;;;2.32;75.93
62248;BME280;48237;50.140;8.486;2023-01-30T05:15:29;99803.52;;;2.43;76.91
62248;BME280;48237;50.140;8.486;2023-01-30T05:17:57;99807.05;;;2.84;74.69
62248;BME280;48237;50.140;8.486;2023-01-30T05:20:25;99807.10;;;2.31;76.84
62248;BME280;48237;50.140;8.486;2023-01-30T05:22:52;99802.28;;;3.21;75.23
62248;BME280;48237;50.140;8.486;2023-01-30T05:25:19;99813.87;;;1.12;82.63
62248;BME280;48237;50.140;8.486;2023-01-30T05:27:46;99799.63;;;2.91;76.98
62248;BME280;48237;50.140;8.486;2023-01-30T05:30:14;99794.50;;;2.19;79.90
62248;BME280;48237;50.140;8.486;2023-01-30T05:32:41;99789.35;;;2.52;76.78
62248;BME280;48237;50.140;8.486;2023-01-30T05:35:08;99784.80;;;2.76;77.54
62248;BME280;48237;50.140;8.486;2023-01-30T05:37:36;99773.23;;;3.31;75.72
62248;BME280;48237;50.140;8.486;2023-01-30T05:40:04;99778.55;;;1.66;82.90
62248;BME280;48237;50.140;8.486;2023-01-30T05:42:32;99782.97;;;2.76;78.77
62248;BME280;48237;50.140;8.486;2023-01-30T05:44:59;99782.32;;;1.66;80.73
62248;BME280;48237;50.140;8.486;2023-01-30T05:47:26;99784.10;;;0.68;87.11
62248;BME280;48237;50.140;8.486;2023-01-30T05:49:54;99765.11;;;2.19;84.15
62248;BME280;48237;50.140;8.486;2023-01-30T05:52:21;99760.03;;;2.58;83.25
62248;BME280;48237;50.140;8.486;2023-01-30T05:54:48;99760.38;;;1.78;87.29
62248;BME280;48237;50.140;8.486;2023-01-30T05:57:16;99756.94;;;3.28;79.72
62248;BME280;48237;50.140;8.486;2023-01-30T05:59:43;99764.02;;;0.24;93.23
62248;BME280;48237;50.140;8.486;2023-01-30T06:02:10;99760.28;;;1.93;87.64
62248;BME280;48237;50.140;8.486;2023-01-30T06:04:37;99757.56;;;2.61;82.64
62248;BME280;48237;50.140;8.486;2023-01-30T06:07:04;99756.90;;;1.81;87.41
62248;BME280;48237;50.140;8.486;2023-01-30T06:09:31;99760.40;;;0.71;95.77
62248;BME280;48237;50.140;8.486;2023-01-30T06:11:58;99764.06;;;0.30;100.00
62248;BME280;48237;50.140;8.486;2023-01-30T06:14:25;99767.12;;;0.10;100.00
62248;BME280;48237;50.140;8.486;2023-01-30T06:16:52;99766.55;;;-0.10;100.00
62248;BME280;48237;50.140;8.486;2023-01-30T06:19:19;99761.34;;;1.09;98.27
62248;BME280;48237;50.140;8.486;2023-01-30T06:21:46;99758.81;;;1.37;94.05
62248;BME280;48237;50.140;8.486;2023-01-30T06:24:14;99750.28;;;-0.30;100.00
62248;BME280;48237;50.140;8.486;2023-01-30T06:26:41;99767.31;;;-1.25;100.00
62248;BME280;48237;50.140;8.486;2023-01-30T06:29:08;99773.69;;;-0.31;100.00
62248;BME280;48237;50.140;8.486;2023-01-30T06:31:35;99762.42;;;0.04;100.00
62248;BME280;48237;50.140;8.486;2023-01-30T06:34:02;99767.42;;;2.51;92.87
62248;BME280;48237;50.140;8.486;2023-01-30T06:36:29;99755.92;;;3.13;86.89
62248;BME280;48237;50.140;8.486;2023-01-30T06:38:56;99749.31;;;1.97;89.77
62248;BME280;48237;50.140;8.486;2023-01-30T06:41:23;99750.57;;;3.10;87.68
62248;BME280;48237;50.140;8.486;2023-01-30T06:43:50;99758.52;;;1.44;91.94
62248;BME280;48237;50.140;8.486;2023-01-30T06:46:18;99769.96;;;1.55;93.99
62248;BME280;48237;50.140;8.486;2023-01-30T06:48:45;99772.46;;;2.25;90.88
62248;BME280;48237;50.140;8.486;2023-01-30T06:51:12;99773.96;;;2.95;85.69
62248;BME280;48237;50.140;8.486;2023-01-30T06:53:39;99782.42;;;2.26;88.29
62248;BME280;48237;50.140;8.486;2023-01-30T06:56:07;99794.61;;;1.98;89.75
62248;BME280;48237;50.140;8.486;2023-01-30T06:58:35;99801.10;;;1.32;94.88
62248;BME280;48237;50.140;8.486;2023-01-30T07:01:02;99798.91;;;2.18;89.99
62248;BME280;48237;50.140;8.486;2023-01-30T07:03:28;99805.75;;;2.38;88.26
62248;BME280;48237;50.140;8.486;2023-01-30T07:05:56;99822.95;;;-0.89;100.00
62248;BME280;48237;50.140;8.486;2023-01-30T07:08:23;99816.13;;;-0.40;100.00
62248;BME280;48237;50.140;8.486;2023-01-30T07:10:51;99801.29;;;2.09;95.75
62248;BME280;48237;50.140;8.486;2023-01-30T07:13:18;99812.02;;;-0.38;100.00
62248;BME280;48237;50.140;8.486;2023-01-30T07:15:45;99833.88;;;0.65;100.00
62248;BME280;48237;50.140;8.486;2023-01-30T07:18:12;99846.72;;;0.03;100.00
62248;BME280;48237;50.140;8.486;2023-01-30T07:20:39;99836.15;;;2.33;89.54
62248;BME280;48237;50.140;8.486;2023-01-30T07:23:06;99811.31;;;2.29;89.80
62248;BME280;48237;50.140;8.486;2023-01-30T07:25:33;99805.13;;;1.85;91.67
62248;BME280;48237;50.140;8.486;2023-01-30T07:28:01;99805.22;;;3.46;85.57
62248;BME280;48237;50.140;8.486;2023-01-30T07:30:32;99797.06;;;3.77;83.02
62248;BME280;48237;50.140;8.486;2023-01-30T07:32:59;99799.23;;;1.72;89.63
62248;BME280;48237;50.140;8.486;2023-01-30T07:35:29;99792.47;;;3.25;84.92
62248;BME280;48237;50.140;8.486;2023-01-30T07:37:56;99804.78;;;1.62;90.43
62248;BME280;48237;50.140;8.486;2023-01-30T07:40:24;99808.95;;;2.77;88.65
62248;BME280;48237;50.140;8.486;2023-01-30T07:42:56;99813.12;;;3.38;86.08
62248;BME280;48237;50.140;8.486;2023-01-30T07:45:36;99826.39;;;2.50;86.29
62248;BME280;48237;50.140;8.486;2023-01-30T07:48:04;99806.49;;;2.39;89.37
62248;BME280;48237;50.140;8.486;2023-01-30T07:50:30;99794.31;;;2.73;88.40
62248;BME280;48237;50.140;8.486;2023-01-30T07:52:58;99804.59;;;0.52;100.00
62248;BME280;48237;50.140;8.486;2023-01-30T07:55:26;99799.04;;;2.56;91.35
62248;BME280;48237;50.140;8.486;2023-01-30T07:57:54;99788.73;;;3.02;87.31
62248;BME280;48237;50.140;8.486;2023-01-30T08:00:22;99798.26;;;-0.73;100.00
62248;BME280;48237;50.140;8.486;2023-01-30T08:02:49;99799.88;;;0.26;100.00
62248;BME280;48237;50.140;8.486;2023-01-30T08:05:15;99782.42;;;1.08;100.00
62248;BME280;48237;50.140;8.486;2023-01-30T08:07:43;99768.10;;;2.33;95.48
62248;BME280;48237;50.140;8.486;2023-01-30T08:10:10;99753.15;;;2.84;89.38
62248;BME280;48237;50.140;8.486;2023-01-30T08:12:38;99749.31;;;3.34;85.66
62248;BME280;48237;50.140;8.486;2023-01-30T08:15:06;99762.84;;;3.64;84.77
62248;BME280;48237;50.140;8.486;2023-01-30T08:17:33;99757.25;;;2.68;89.34
62248;BME280;48237;50.140;8.486;2023-01-30T08:20:01;99755.38;;;2.53;90.77
62248;BME280;48237;50.140;8.486;2023-01-30T08:22:28;99745.61;;;3.21;88.45
62248;BME280;48237;50.140;8.486;2023-01-30T08:24:55;99750.91;;;3.07;88.16
62248;BME280;48237;50.140;8.486;2023-01-30T08:27:22;99760.83;;;1.18;100.00
62248;BME280;48237;50.140;8.486;2023-01-30T08:29:49;99767.17;;;1.64;100.00
62248;BME280;48237;50.140;8.486;2023-01-30T08:32:21;99768.19;;;1.99;94.73
62248;BME280;48237;50.140;8.486;2023-01-30T08:34:48;99768.02;;;1.96;95.87
62248;BME280;48237;50.140;8.486;2023-01-30T08:37:15;99756.01;;;1.92;93.42
62248;BME280;48237;50.140;8.486;2023-01-30T08:39:42;99769.39;;;1.14;100.00
62248;BME280;48237;50.140;8.486;2023-01-30T08:42:10;99756.87;;;1.35;100.00
62248;BME280;48237;50.140;8.486;2023-01-30T08:44:37;99740.13;;;1.75;100.00
62248;BME280;48237;50.140;8.486;2023-01-30T08:47:04;99735.21;;;1.78;100.00
62248;BME280;48237;50.140;8.486;2023-01-30T08:49:31;99740.06;;;1.37;100.00
62248;BME280;48237;50.140;8.486;2023-01-30T08:51:58;99731.32;;;1.73;100.00
62248;BME280;48237;50.140;8.486;2023-01-30T08:54:25;99739.92;;;2.57;96.89
62248;BME280;48237;50.140;8.486;2023-01-30T08:56:52;99730.38;;;2.39;97.66
62248;BME280;48237;50.140;8.486;2023-01-30T08:59:19;99725.26;;;1.57;100.00
62248;BME280;48237;50.140;8.486;2023-01-30T09:01:46;99726.35;;;2.50;100.00
62248;BME280;48237;50.140;8.486;2023-01-30T09:04:13;99718.09;;;2.36;99.60
62248;BME280;48237;50.140;8.486;2023-01-30T09:06:40;99719.97;;;1.73;100.00
62248;BME280;48237;50.140;8.486;2023-01-30T09:09:08;99712.55;;;1.88;100.00
62248;BME280;48237;50.140;8.486;2023-01-30T09:11:35;99716.40;;;2.43;100.00
62248;BME280;48237;50.140;8.486;2023-01-30T09:14:03;99717.07;;;1.80;100.00
62248;BME280;48237;50.140;8.486;2023-01-30T09:16:30;99706.27;;;2.05;100.00
62248;BME280;48237;50.140;8.486;2023-01-30T09:18:57;99701.69;;;2.73;98.46
62248;BME280;48237;50.140;8.486;2023-01-30T09:21:24;99701.17;;;2.62;100.00
62248;BME280;48237;50.140;8.486;2023-01-30T09:23:54;99710.16;;;2.82;100.00
62248;BME280;48237;50.140;8.486;2023-01-30T09:26:21;99708.70;;;1.90;100.00
62248;BME280;48237;50.140;8.486;2023-01-30T09:28:48;99698.97;;;1.99;100.00
62248;BME280;48237;50.140;8.486;2023-01-30T09:31:15;99698.44;;;2.69;100.00
62248;BME280;48237;50.140;8.486;2023-01-30T09:33:42;99700.91;;;2.28;100.00
62248;BME280;48237;50.140;8.486;2023-01-30T09:36:09;99701.35;;;1.99;100.00
62248;BME280;48237;50.140;8.486;2023-01-30T09:38:36;99703.01;;;2.51;100.00
62248;BME280;48237;50.140;8.486;2023-01-30T09:41:31;99712.62;;;3.02;100.00
62248;BME280;48237;50.140;8.486;2023-01-30T09:44:36;99716.78;;;2.65;100.00
62248;BME280;48237;50.140;8.486;2023-01-30T09:47:11;99718.24;;;2.43;100.00
62248;BME280;48237;50.140;8.486;2023-01-30T09:49:46;99715.67;;;2.42;100.00
62248;BME280;48237;50.140;8.486;2023-01-30T09:52:25;99715.08;;;2.71;100.00
62248;BME280;48237;50.140;8.486;2023-01-30T09:54:59;99708.12;;;2.61;99.79
62248;BME280;48237;50.140;8.486;2023-01-30T09:57:28;99702.69;;;2.72;100.00
62248;BME280;48237;50.140;8.486;2023-01-30T09:59:58;99698.51;;;2.63;100.00
62248;BME280;48237;50.140;8.486;2023-01-30T10:02:44;99684.60;;;3.12;100.00
62248;BME280;48237;50.140;8.486;2023-01-30T10:05:13;99674.45;;;3.05;100.00
62248;BME280;48237;50.140;8.486;2023-01-30T10:07:58;99672.23;;;3.13;99.15
62248;BME280;48237;50.140;8.486;2023-01-30T10:10:37;99679.16;;;3.07;100.00
62248;BME280;48237;50.140;8.486;2023-01-30T10:13:13;99673.14;;;3.35;99.98
62248;BME280;48237;50.140;8.486;2023-01-30T10:15:52;99662.78;;;2.84;100.00
62248;BME280;48237;50.140;8.486;2023-01-30T10:18:39;99661.85;;;2.80;100.00
62248;BME280;48237;50.140;8.486;2023-01-30T10:21:18;99671.65;;;3.03;100.00
62248;BME280;48237;50.140;8.486;2023-01-30T10:24:03;99679.66;;;3.15;100.00
62248;BME280;48237;50.140;8.486;2023-01-30T10:26:32;99681.57;;;2.59;100.00
62248;BME280;48237;50.140;8.486;2023-01-30T10:29:03;99687.89;;;3.08;100.00
62248;BME280;48237;50.140;8.486;2023-01-30T10:31:36;99677.60;;;3.26;100.00
62248;BME280;48237;50.140;8.486;2023-01-30T10:34:11;99659.92;;;2.81;100.00
62248;BME280;48237;50.140;8.486;2023-01-30T10:36:42;99655.49;;;2.62;100.00
62248;BME280;48237;50.140;8.486;2023-01-30T10:39:21;99660.33;;;3.29;100.00
62248;BME280;48237;50.140;8.486;2023-01-30T10:41:55;99652.63;;;3.83;100.00
62248;BME280;48237;50.140;8.486;2023-01-30T10:44:25;99657.18;;;4.02;97.95
62248;BME280;48237;50.140;8.486;2023-01-30T10:47:03;99660.67;;;3.97;99.92
62248;BME280;48237;50.140;8.486;2023-01-30T10:49:39;99664.21;;;3.69;98.41
62248;BME280;48237;50.140;8.486;2023-01-30T10:52:20;99662.24;;;4.35;97.83
62248;BME280;48237;50.140;8.486;2023-01-30T10:54:57;99670.40;;;4.00;96.96
62248;BME280;48237;50.140;8.486;2023-01-30T10:57:35;99663.89;;;4.42;97.66
62248;BME280;48237;50.140;8.486;2023-01-30T11:00:16;99655.19;;;3.74;98.46
62248;BME280;48237;50.140;8.486;2023-01-30T11:02:57;99644.17;;;3.85;98.78
62248;BME280;48237;50.140;8.486;2023-01-30T11:05:37;99651.73;;;4.52;96.46
62248;BME280;48237;50.140;8.486;2023-01-30T11:08:13;99653.12;;;4.67;94.65
62248;BME280;48237;50.140;8.486;2023-01-30T11:10:41;99654.90;;;4.45;93.52
62248;BME280;48237;50.140;8.486;2023-01-30T11:13:15;99646.93;;;4.13;97.28
62248;BME280;48237;50.140;8.486;2023-01-30T11:15:45;99650.05;;;4.81;94.13
62248;BME280;48237;50.140;8.486;2023-01-30T11:18:15;99656.63;;;4.08;94.85
62248;BME280;48237;50.140;8.486;2023-01-30T11:21:02;99664.09;;;4.39;95.39
62248;BME280;48237;50.140;8.486;2023-01-30T11:23:33;99672.91;;;4.58;96.24
62248;BME280;48237;50.140;8.486;2023-01-30T11:26:03;99670.11;;;4.71;94.38
62248;BME280;48237;50.140;8.486;2023-01-30T11:28:38;99665.44;;;4.61;94.82
62248;BME280;48237;50.140;8.486;2023-01-30T11:31:17;99664.27;;;4.83;93.03
62248;BME280;48237;50.140;8.486;2023-01-30T11:33:44;99668.09;;;4.88;95.51
62248;BME280;48237;50.140;8.486;2023-01-30T11:36:25;99674.56;;;5.10;97.78
62248;BME280;48237;50.140;8.486;2023-01-30T11:38:57;99691.21;;;5.13;90.75
62248;BME280;48237;50.140;8.486;2023-01-30T11:41:24;99696.12;;;5.23;90.87
62248;BME280;48237;50.140;8.486;2023-01-30T11:43:59;99683.01;;;5.23;91.57
62248;BME280;48237;50.140;8.486;2023-01-30T11:46:30;99681.39;;;5.10;91.74
62248;BME280;48237;50.140;8.486;2023-01-30T11:49:02;99680.56;;;5.03;90.70
62248;BME280;48237;50.140;8.486;2023-01-30T11:51:34;99676.08;;;4.90;93.85
62248;BME280;48237;50.140;8.486;2023-01-30T11:54:04;99670.12;;;5.46;89.29
62248;BME280;48237;50.140;8.486;2023-01-30T11:56:38;99665.66;;;4.53;90.76
62248;BME280;48237;50.140;8.486;2023-01-30T11:59:15;99664.14;;;5.14;88.81
62248;BME280;48237;50.140;8.486;2023-01-30T12:01:46;99664.97;;;5.12;86.74
62248;BME280;48237;50.140;8.486;2023-01-30T12:04:14;99659.41;;;5.43;86.35
62248;BME280;48237;50.140;8.486;2023-01-30T12:06:43;99665.51;;;5.30;85.35
62248;BME280;48237;50.140;8.486;2023-01-30T12:09:31;99652.76;;;5.21;86.79
62248;BME280;48237;50.140;8.486;2023-01-30T12:12:00;99660.89;;;5.36;85.55
62248;BME280;48237;50.140;8.486;2023-01-30T12:14:36;99654.00;;;5.19;86.36
62248;BME280;48237;50.140;8.486;2023-01-30T12:17:13;99648.55;;;5.59;83.55
62248;BME280;48237;50.140;8.486;2023-01-30T12:19:51;99649.31;;;5.40;86.24
62248;BME280;48237;50.140;8.486;2023-01-30T12:22:27;99637.54;;;5.15;85.36
62248;BME280;48237;50.140;8.486;2023-01-30T12:25:00;99640.44;;;5.13;85.57
62248;BME280;48237;50.140;8.486;2023-01-30T12:27:42;99648.06;;;5.27;83.06
62248;BME280;48237;50.140;8.486;2023-01-30T12:30:23;99650.82;;;5.30;85.37
62248;BME280;48237;50.140;8.486;2023-01-30T12:32:59;99638.44;;;5.90;81.90
62248;BME280;48237;50.140;8.486;2023-01-30T12:35:35;99633.72;;;6.22;79.90
62248;BME280;48237;50.140;8.486;2023-01-30T12:38:13;99642.29;;;6.02;80.31
62248;BME280;48237;50.140;8.486;2023-01-30T12:40:50;99649.20;;;6.37;82.22
62248;BME280;48237;50.140;8.486;2023-01-30T12:43:31;99646.14;;;6.35;80.58
62248;BME280;48237;50.140;8.486;2023-01-30T12:46:10;99648.60;;;6.30;79.16
62248;BME280;48237;50.140;8.486;2023-01-30T12:48:53;99634.05;;;6.41;79.60
62248;BME280;48237;50.140;8.486;2023-01-30T12:51:38;99658.14;;;5.99;79.71
62248;BME280;48237;50.140;8.486;2023-01-30T12:54:21;99651.26;;;6.46;77.91
62248;BME280;48237;50.140;8.486;2023-01-30T12:56:59;99655.96;;;6.10;79.34
62248;BME280;48237;50.140;8.486;2023-01-30T12:59:35;99655.16;;;6.13;78.42
62248;BME280;48237;50.140;8.486;2023-01-30T13:02:54;99664.17;;;6.24;80.53
62248;BME280;48237;50.140;8.486;2023-01-30T13:05:36;99663.17;;;6.01;80.29
62248;BME280;48237;50.140;8.486;2023-01-30T13:08:18;99663.59;;;5.77;83.42
62248;BME280;48237;50.140;8.486;2023-01-30T13:10:53;99665.78;;;6.60;75.83
62248;BME280;48237;50.140;8.486;2023-01-30T13:13:28;99669.55;;;6.82;75.61
62248;BME280;48237;50.140;8.486;2023-01-30T13:16:03;99677.08;;;6.52;77.49
62248;BME280;48237;50.140;8.486;2023-01-30T13:18:38;99674.83;;;5.95;78.91
62248;BME280;48237;50.140;8.486;2023-01-30T13:21:12;99674.20;;;5.97;78.28
62248;BME280;48237;50.140;8.486;2023-01-30T13:23:47;99675.37;;;6.75;76.56
62248;BME280;48237;50.140;8.486;2023-01-30T13:26:23;99676.24;;;6.13;78.59
62248;BME280;48237;50.140;8.486;2023-01-30T13:28:57;99669.21;;;6.06;78.71